createdAt,value
2018-05-04T00:00:19.001Z,6.40
2018-05-04T00:02:47.173Z,6.87
2018-05-04T00:05:15.338Z,6.68
2018-05-04T00:07:43.508Z,6.25
2018-05-04T00:10:12.692Z,8.10
2018-05-04T00:12:40.869Z,7.57
2018-05-04T00:15:09.037Z,7.62
2018-05-04T00:17:37.212Z,6.60
2018-05-04T00:20:05.401Z,7.10
2018-05-04T00:22:33.576Z,7.32
2018-05-04T00:25:01.731Z,7.25
2018-05-04T00:27:29.969Z,6.32
2018-05-04T00:29:58.118Z,6.90
2018-05-04T00:32:26.341Z,8.20
2018-05-04T00:34:54.520Z,8.07
2018-05-04T00:37:23.440Z,7.82
2018-05-04T00:39:52.616Z,7.30
2018-05-04T00:42:20.763Z,8.50
2018-05-04T00:44:49.718Z,9.02
2018-05-04T00:47:17.909Z,8.85
2018-05-04T00:49:46.128Z,8.40
2018-05-04T00:52:15.048Z,8.82
2018-05-04T00:54:43.208Z,8.35
2018-05-04T00:57:11.351Z,8.68
2018-05-04T00:59:39.644Z,9.15
2018-05-04T01:02:08.055Z,8.88
2018-05-04T01:04:36.229Z,8.55
2018-05-04T01:07:04.398Z,9.63
2018-05-04T01:09:33.601Z,9.40
2018-05-04T01:12:01.738Z,8.98
2018-05-04T01:14:29.916Z,10.00
2018-05-04T01:16:58.071Z,9.38
2018-05-04T01:19:27.277Z,9.57
2018-05-04T01:21:56.195Z,8.52
2018-05-04T01:24:24.385Z,9.27
2018-05-04T01:26:52.924Z,8.27
2018-05-04T01:29:22.592Z,7.87
2018-05-04T01:31:50.788Z,8.05
2018-05-04T01:34:18.955Z,6.57
2018-05-04T01:36:47.122Z,7.80
2018-05-04T01:39:15.316Z,8.35
2018-05-04T01:41:44.457Z,7.97
2018-05-04T01:44:12.620Z,8.90
2018-05-04T01:46:41.557Z,8.10
2018-05-04T01:49:09.712Z,7.87
2018-05-04T01:51:37.864Z,7.85
2018-05-04T01:54:06.016Z,8.55
2018-05-04T01:56:34.167Z,8.45
2018-05-04T01:59:02.399Z,8.80
2018-05-04T02:01:31.925Z,8.00
2018-05-04T02:04:00.079Z,7.30
2018-05-04T02:06:28.995Z,8.10
2018-05-04T02:08:57.850Z,8.90
2018-05-04T02:11:26.022Z,9.65
2018-05-04T02:13:54.188Z,8.57
2018-05-04T02:16:23.167Z,9.23
2018-05-04T02:18:51.339Z,9.45
2018-05-04T02:21:20.391Z,8.45
2018-05-04T02:23:48.555Z,9.77
2018-05-04T02:26:16.710Z,9.32
2018-05-04T02:28:44.866Z,8.82
2018-05-04T02:31:14.425Z,8.60
2018-05-04T02:33:42.498Z,9.98
2018-05-04T02:36:10.653Z,9.27
2018-05-04T02:38:38.836Z,10.65
2018-05-04T02:41:06.988Z,12.25
2018-05-04T02:43:35.151Z,11.77
2018-05-04T02:46:03.335Z,13.02
2018-05-04T02:48:31.498Z,12.37
2018-05-04T02:51:00.500Z,12.15
2018-05-04T02:53:28.668Z,12.32
2018-05-04T02:55:56.854Z,10.57
2018-05-04T02:58:25.041Z,12.77
2018-05-04T03:01:09.426Z,11.65
2018-05-04T03:03:38.381Z,9.77
2018-05-04T03:06:06.554Z,11.38
2018-05-04T03:08:34.721Z,10.82
2018-05-04T03:11:02.905Z,10.52
2018-05-04T03:13:31.999Z,12.02
2018-05-04T03:16:00.174Z,13.15
2018-05-04T03:18:28.338Z,11.32
2018-05-04T03:20:56.604Z,11.20
2018-05-04T03:23:25.172Z,9.77
2018-05-04T03:25:54.138Z,11.10
2018-05-04T03:28:22.304Z,11.88
2018-05-04T03:30:50.542Z,10.68
2018-05-04T03:33:18.719Z,10.75
2018-05-04T03:35:46.904Z,11.73
2018-05-04T03:38:15.632Z,11.45
2018-05-04T03:40:43.863Z,10.77
2018-05-04T03:43:12.050Z,11.52
2018-05-04T03:45:40.191Z,13.45
2018-05-04T03:48:08.339Z,13.70
2018-05-04T03:50:37.364Z,12.05
2018-05-04T03:53:05.557Z,12.00
2018-05-04T03:55:33.789Z,12.98
2018-05-04T03:58:14.544Z,13.00
2018-05-04T04:00:54.548Z,11.90
2018-05-04T04:03:34.832Z,13.40
2018-05-04T04:09:36.998Z,13.25
2018-05-04T04:12:10.376Z,13.57
2018-05-04T04:14:38.886Z,13.52
2018-05-04T04:17:07.084Z,12.65
2018-05-04T04:19:35.310Z,12.20
2018-05-04T04:22:04.255Z,13.70
2018-05-04T04:24:32.450Z,13.10
2018-05-04T04:27:00.629Z,13.88
2018-05-04T04:29:29.647Z,12.93
2018-05-04T04:31:57.828Z,13.35
2018-05-04T04:34:25.980Z,13.57
2018-05-04T04:36:54.144Z,13.38
2018-05-04T04:39:23.123Z,14.10
2018-05-04T04:41:51.278Z,13.57
2018-05-04T04:44:19.450Z,13.95
2018-05-04T04:46:48.335Z,13.75
2018-05-04T04:49:16.557Z,14.63
2018-05-04T04:51:44.734Z,14.00
2018-05-04T04:54:12.886Z,17.35
2018-05-04T04:56:41.045Z,13.30
2018-05-04T04:59:09.212Z,14.75
2018-05-04T05:01:38.134Z,12.68
2018-05-04T05:04:07.094Z,14.80
2018-05-04T05:06:35.251Z,14.63
2018-05-04T05:09:10.769Z,14.18
2018-05-04T05:11:39.371Z,14.32
2018-05-04T05:14:07.535Z,15.52
2018-05-04T05:16:35.693Z,14.20
2018-05-04T05:19:04.608Z,12.95
2018-05-04T05:21:32.797Z,13.73
2018-05-04T05:24:00.979Z,14.35
2018-05-04T05:26:29.596Z,14.32
2018-05-04T05:28:58.518Z,14.23
2018-05-04T05:31:26.931Z,12.48
2018-05-04T05:33:55.104Z,14.55
2018-05-04T05:36:23.679Z,13.62
2018-05-04T05:38:51.848Z,13.52
2018-05-04T05:41:23.603Z,12.90
2018-05-04T05:43:58.086Z,12.35
2018-05-04T05:46:26.902Z,13.55
2018-05-04T05:48:55.213Z,13.75
2018-05-04T05:51:23.451Z,12.25
2018-05-04T05:53:51.618Z,12.35
2018-05-04T05:56:19.797Z,13.20
2018-05-04T05:58:47.971Z,11.90
2018-05-04T06:01:16.981Z,11.75
2018-05-04T06:03:45.508Z,11.77
2018-05-04T06:06:13.688Z,11.93
2018-05-04T06:08:41.860Z,11.27
2018-05-04T06:11:10.316Z,12.93
2018-05-04T06:13:38.699Z,12.00
2018-05-04T06:16:06.898Z,11.95
2018-05-04T06:18:35.043Z,11.90
2018-05-04T06:21:03.228Z,12.57
2018-05-04T06:23:31.625Z,11.32
2018-05-04T06:25:59.789Z,11.48
2018-05-04T06:28:27.959Z,11.12
2018-05-04T06:30:57.125Z,11.60
2018-05-04T06:33:25.942Z,11.18
2018-05-04T06:35:54.131Z,10.25
2018-05-04T06:38:22.292Z,10.57
2018-05-04T06:40:51.441Z,11.15
2018-05-04T06:43:19.602Z,10.85
2018-05-04T06:45:47.799Z,10.52
2018-05-04T06:48:17.502Z,9.65
2018-05-04T06:50:47.622Z,10.70
2018-05-04T06:53:15.837Z,9.68
2018-05-04T06:55:44.036Z,9.35
2018-05-04T06:58:12.187Z,10.10
2018-05-04T07:00:40.521Z,9.02
2018-05-04T07:03:08.673Z,9.60
2018-05-04T07:05:37.595Z,8.93
2018-05-04T07:08:05.768Z,7.22
2018-05-04T07:10:34.107Z,9.52
2018-05-04T07:13:02.289Z,9.10
2018-05-04T07:15:31.339Z,9.00
2018-05-04T07:17:59.891Z,10.18
2018-05-04T07:20:28.577Z,9.90
2018-05-04T07:22:56.743Z,10.52
2018-05-04T07:25:25.685Z,9.75
2018-05-04T07:27:53.852Z,9.63
2018-05-04T07:30:22.108Z,9.55
2018-05-04T07:32:50.665Z,8.75
2018-05-04T07:35:19.622Z,9.70
2018-05-04T07:37:48.696Z,8.80
2018-05-04T07:40:17.867Z,8.45
2018-05-04T07:42:46.025Z,8.88
2018-05-04T07:45:14.442Z,7.93
2018-05-04T07:47:43.406Z,7.85
2018-05-04T07:50:11.568Z,8.88
2018-05-04T07:52:39.753Z,9.57
2018-05-04T07:55:09.752Z,9.70
2018-05-04T07:57:38.674Z,8.63
2018-05-04T08:00:11.689Z,9.20
2018-05-04T08:02:39.860Z,8.70
2018-05-04T08:05:12.087Z,8.48
2018-05-04T08:07:40.676Z,7.45
2018-05-04T08:10:09.864Z,8.65
2018-05-04T08:12:38.038Z,7.95
2018-05-04T08:15:06.995Z,8.20
2018-05-04T08:17:35.173Z,8.27
2018-05-04T08:20:03.440Z,8.85
2018-05-04T08:22:31.570Z,8.60
2018-05-04T08:24:59.734Z,8.38
2018-05-04T08:27:27.928Z,9.15
2018-05-04T08:29:56.484Z,8.77
2018-05-04T08:32:24.644Z,7.22
2018-05-04T08:34:52.949Z,7.57
2018-05-04T08:37:21.099Z,7.78
2018-05-04T08:39:50.522Z,8.63
2018-05-04T08:42:18.729Z,6.95
2018-05-04T08:44:46.955Z,7.47
2018-05-04T08:47:16.210Z,8.85
2018-05-04T08:49:48.254Z,8.77
2018-05-04T08:52:19.544Z,8.63
2018-05-04T08:54:47.716Z,8.57
2018-05-04T08:57:15.904Z,10.07
2018-05-04T08:59:46.067Z,9.45
2018-05-04T09:02:15.080Z,8.38
2018-05-04T09:04:43.232Z,8.38
2018-05-04T09:07:11.438Z,8.10
2018-05-04T09:09:45.347Z,10.15
2018-05-04T09:12:17.288Z,6.95
2018-05-04T09:14:45.443Z,8.40
2018-05-04T09:17:15.805Z,8.85
2018-05-04T09:19:47.471Z,9.85
2018-05-04T09:22:15.656Z,9.27
2018-05-04T09:24:46.763Z,8.93
2018-05-04T09:27:15.637Z,8.90
2018-05-04T09:29:43.822Z,8.82
2018-05-04T09:32:12.480Z,8.65
2018-05-04T09:34:40.624Z,8.85
2018-05-04T09:37:08.809Z,8.75
2018-05-04T09:39:37.981Z,9.48
2018-05-04T09:42:06.134Z,9.30
2018-05-04T09:44:34.296Z,9.15
2018-05-04T09:47:02.517Z,10.05
2018-05-04T09:49:31.671Z,9.25
2018-05-04T09:51:59.940Z,10.07
2018-05-04T09:54:28.114Z,9.25
2018-05-04T09:56:56.282Z,9.75
2018-05-04T09:59:24.565Z,10.18
2018-05-04T10:01:52.746Z,10.48
2018-05-04T10:04:21.662Z,10.38
2018-05-04T10:06:49.845Z,9.68
2018-05-04T10:09:18.015Z,10.25
2018-05-04T10:11:46.684Z,9.60
2018-05-04T10:14:14.797Z,10.60
2018-05-04T10:16:42.951Z,9.40
2018-05-04T10:19:11.147Z,10.68
2018-05-04T10:21:39.379Z,10.10
2018-05-04T10:24:07.533Z,9.80
2018-05-04T10:26:35.752Z,9.68
2018-05-04T10:29:03.931Z,9.20
2018-05-04T10:31:32.153Z,9.50
2018-05-04T10:34:01.155Z,10.63
2018-05-04T10:36:29.330Z,10.25
2018-05-04T10:38:57.600Z,11.50
2018-05-04T10:41:25.757Z,9.85
2018-05-04T10:43:54.720Z,11.73
2018-05-04T10:46:22.917Z,11.50
2018-05-04T10:48:51.845Z,10.15
2018-05-04T10:51:20.099Z,9.73
2018-05-04T10:53:48.278Z,11.15
2018-05-04T10:56:16.462Z,9.80
2018-05-04T10:58:44.647Z,11.20
2018-05-04T11:01:13.823Z,10.93
2018-05-04T11:03:41.998Z,12.00
2018-05-04T11:06:11.707Z,10.02
2018-05-04T11:08:41.023Z,10.40
2018-05-04T11:11:10.004Z,10.35
2018-05-04T11:13:38.199Z,11.00
2018-05-04T11:16:06.398Z,10.57
2018-05-04T11:18:34.575Z,11.00
2018-05-04T11:21:02.771Z,10.40
2018-05-04T11:23:31.718Z,10.63
2018-05-04T11:25:59.879Z,10.17
2018-05-04T11:28:28.083Z,9.20
2018-05-04T11:31:00.977Z,10.37
2018-05-04T11:33:29.131Z,8.90
2018-05-04T11:35:57.316Z,8.90
2018-05-04T11:38:26.263Z,11.73
2018-05-04T11:40:54.521Z,10.53
2018-05-04T11:43:23.465Z,10.10
2018-05-04T11:45:51.634Z,9.60
2018-05-04T11:48:19.804Z,9.07
2018-05-04T11:50:47.981Z,9.40
2018-05-04T11:53:16.160Z,9.50
2018-05-04T11:55:45.283Z,10.23
2018-05-04T11:58:13.448Z,10.70
2018-05-04T12:00:42.509Z,9.70
2018-05-04T12:03:11.151Z,9.83
2018-05-04T12:05:39.320Z,11.50
2018-05-04T12:08:08.268Z,10.23
2018-05-04T12:10:36.432Z,10.43
2018-05-04T12:13:04.617Z,10.47
2018-05-04T12:15:32.785Z,10.40
2018-05-04T12:18:00.933Z,9.30
2018-05-04T12:20:29.952Z,9.20
2018-05-04T12:22:58.369Z,9.57
2018-05-04T12:25:26.537Z,10.40
2018-05-04T12:27:54.755Z,9.77
2018-05-04T12:30:24.043Z,8.60
2018-05-04T12:32:52.281Z,10.83
2018-05-04T12:35:20.472Z,8.73
2018-05-04T12:37:49.572Z,11.07
2018-05-04T12:40:19.375Z,8.90
2018-05-04T12:42:47.543Z,11.30
2018-05-04T12:45:16.409Z,10.70
2018-05-04T12:47:44.661Z,8.87
2018-05-04T12:50:13.004Z,9.30
2018-05-04T12:52:41.187Z,9.47
2018-05-04T12:55:10.102Z,8.87
2018-05-04T12:57:38.270Z,9.43
2018-05-04T13:00:06.897Z,8.17
2018-05-04T13:02:35.064Z,9.93
2018-05-04T13:05:03.270Z,8.90
2018-05-04T13:07:31.452Z,9.87
2018-05-04T13:10:00.594Z,10.37
2018-05-04T13:12:28.759Z,9.07
2018-05-04T13:14:56.972Z,8.50
2018-05-04T13:17:26.448Z,9.20
2018-05-04T13:19:54.598Z,8.87
2018-05-04T13:22:23.520Z,10.17
2018-05-04T13:24:51.672Z,10.43
2018-05-04T13:27:19.858Z,10.20
2018-05-04T13:29:50.077Z,9.20
2018-05-04T13:32:19.127Z,9.47
2018-05-04T13:34:47.315Z,9.60
2018-05-04T13:37:16.244Z,10.20
2018-05-04T13:39:44.519Z,10.13
2018-05-04T13:42:12.711Z,8.77
2018-05-04T13:44:41.009Z,10.40
2018-05-04T13:47:09.922Z,8.07
2018-05-04T13:49:38.240Z,8.63
2018-05-04T13:52:06.411Z,7.60
2018-05-04T13:54:34.593Z,8.43
2018-05-04T13:57:02.765Z,7.27
2018-05-04T13:59:30.957Z,7.10
2018-05-04T14:01:59.522Z,9.53
2018-05-04T14:04:28.807Z,7.93
2018-05-04T14:06:56.985Z,7.80
2018-05-04T14:09:26.905Z,8.50
2018-05-04T14:11:55.092Z,6.70
2018-05-04T14:14:23.272Z,7.37
2018-05-04T14:16:51.421Z,7.80
2018-05-04T14:19:19.642Z,8.40
2018-05-04T14:21:47.829Z,7.80
2018-05-04T14:24:15.963Z,8.10
2018-05-04T14:26:44.157Z,8.77
2018-05-04T14:29:12.323Z,9.03
2018-05-04T14:31:40.522Z,8.20
2018-05-04T14:34:08.697Z,6.80
2018-05-04T14:36:37.869Z,8.67
2018-05-04T14:39:06.248Z,8.00
2018-05-04T14:41:34.401Z,8.00
2018-05-04T14:44:02.576Z,9.47
2018-05-04T14:46:30.750Z,8.70
2018-05-04T14:48:58.914Z,9.27
2018-05-04T14:51:27.098Z,7.53
2018-05-04T14:53:55.255Z,8.80
2018-05-04T14:56:24.410Z,8.40
2018-05-04T14:58:52.596Z,9.60
2018-05-04T15:01:20.758Z,7.60
2018-05-04T15:03:48.982Z,8.40
2018-05-04T15:06:17.152Z,10.30
2018-05-04T15:08:45.329Z,10.57
2018-05-04T15:11:13.595Z,10.43
2018-05-04T15:13:42.887Z,8.97
2018-05-04T15:16:11.832Z,10.10
2018-05-04T15:18:40.112Z,10.57
2018-05-04T15:21:09.403Z,11.30
2018-05-04T15:23:38.525Z,9.40
2018-05-04T15:26:06.676Z,10.57
2018-05-04T15:28:34.853Z,9.37
2018-05-04T15:31:03.098Z,8.83
2018-05-04T15:33:31.300Z,11.00
2018-05-04T15:35:59.457Z,8.60
2018-05-04T15:38:27.647Z,8.60
2018-05-04T15:40:56.760Z,8.40
2018-05-04T15:43:24.957Z,9.10
2018-05-04T15:45:53.413Z,8.57
2018-05-04T15:48:27.172Z,9.47
2018-05-04T15:51:01.037Z,9.67
2018-05-04T15:53:29.203Z,9.13
2018-05-04T15:55:57.359Z,8.50
2018-05-04T15:58:26.300Z,8.57
2018-05-04T16:01:00.149Z,8.20
2018-05-04T16:03:32.616Z,8.20
2018-05-04T16:06:00.830Z,8.23
2018-05-04T16:08:29.773Z,9.27
2018-05-04T16:10:58.144Z,8.87
2018-05-04T16:13:27.059Z,9.40
2018-05-04T16:15:55.253Z,9.13
2018-05-04T16:18:23.479Z,8.40
2018-05-04T16:20:51.772Z,7.90
2018-05-04T16:23:19.943Z,8.00
2018-05-04T16:25:48.914Z,8.20
2018-05-04T16:28:17.107Z,7.27
2018-05-04T16:30:47.395Z,8.57
2018-05-04T16:33:15.561Z,8.07
2018-05-04T16:35:46.818Z,7.33
2018-05-04T16:38:14.992Z,7.10
2018-05-04T16:40:46.990Z,6.93
2018-05-04T16:43:16.088Z,7.63
2018-05-04T16:45:44.249Z,7.70
2018-05-04T16:48:18.081Z,7.50
2018-05-04T16:50:48.287Z,6.20
2018-05-04T16:53:16.480Z,7.50
2018-05-04T16:55:45.965Z,6.83
2018-05-04T16:58:15.009Z,7.97
2018-05-04T17:00:46.411Z,7.13
2018-05-04T17:03:14.572Z,7.40
2018-05-04T17:05:42.741Z,6.30
2018-05-04T17:08:11.681Z,7.80
2018-05-04T17:10:39.898Z,7.30
2018-05-04T17:13:08.944Z,7.90
2018-05-04T17:15:38.668Z,7.83
2018-05-04T17:18:06.824Z,7.40
2018-05-04T17:20:38.226Z,7.53
2018-05-04T17:23:06.414Z,6.70
2018-05-04T17:25:36.255Z,8.10
2018-05-04T17:28:04.404Z,6.77
2018-05-04T17:30:33.429Z,8.07
2018-05-04T17:33:02.282Z,6.90
2018-05-04T17:35:32.189Z,8.17
2018-05-04T17:38:00.365Z,6.30
2018-05-04T17:40:29.443Z,5.27
2018-05-04T17:42:57.572Z,5.10
2018-05-04T17:45:25.744Z,4.70
2018-05-04T17:47:53.912Z,4.40
2018-05-04T17:50:24.107Z,4.12
2018-05-04T17:52:52.271Z,6.85
2018-05-04T17:55:20.441Z,4.20
2018-05-04T17:57:48.604Z,4.22
2018-05-04T18:00:16.833Z,5.87
2018-05-04T18:03:16.047Z,3.97
2018-05-04T18:05:44.205Z,4.15
2018-05-04T18:08:12.372Z,4.12
2018-05-04T18:10:40.667Z,4.60
2018-05-04T18:13:08.859Z,3.47
2018-05-04T18:15:37.500Z,3.75
2018-05-04T18:18:06.472Z,3.83
2018-05-04T18:20:36.179Z,4.25
2018-05-04T18:23:04.350Z,4.00
2018-05-04T18:25:32.530Z,3.50
2018-05-04T18:28:28.363Z,2.97
2018-05-04T18:30:58.127Z,2.72
2018-05-04T18:33:26.306Z,3.70
2018-05-04T18:35:54.498Z,3.50
2018-05-04T18:38:57.111Z,2.87
2018-05-04T18:42:06.269Z,4.05
2018-05-04T18:53:40.533Z,3.50
2018-05-04T18:56:08.755Z,3.20
2018-05-04T18:58:36.952Z,4.18
2018-05-04T19:01:05.162Z,3.17
2018-05-04T19:03:33.388Z,3.60
2018-05-04T19:06:01.682Z,3.25
2018-05-04T19:08:29.866Z,3.67
2018-05-04T19:17:41.406Z,3.12
2018-05-04T19:20:44.782Z,3.30
2018-05-04T19:23:50.980Z,3.42
2018-05-04T19:26:48.703Z,3.67
2018-05-04T19:29:28.566Z,4.25
2018-05-04T19:32:02.783Z,3.60
2018-05-04T19:34:41.393Z,3.58
2018-05-04T19:37:32.537Z,3.50
2018-05-04T19:40:17.048Z,3.53
2018-05-04T19:42:52.302Z,3.90
2018-05-04T19:45:23.345Z,3.92
2018-05-04T19:48:06.335Z,3.62
2018-05-04T19:50:36.612Z,3.50
2018-05-04T19:53:13.342Z,3.95
2018-05-04T19:55:49.903Z,3.53
2018-05-04T19:58:34.165Z,4.05
2018-05-04T20:01:02.343Z,3.78
2018-05-04T20:03:30.689Z,4.72
2018-05-04T20:05:59.637Z,3.22
2018-05-04T20:08:30.233Z,4.72
2018-05-04T20:10:58.930Z,3.83
2018-05-04T20:13:27.474Z,4.95
2018-05-04T20:15:55.668Z,4.18
2018-05-04T20:18:23.881Z,4.28
2018-05-04T20:20:52.082Z,3.08
2018-05-04T20:23:20.264Z,3.47
2018-05-04T20:25:49.216Z,3.70
2018-05-04T20:28:17.790Z,3.83
2018-05-04T20:30:46.024Z,2.87
2018-05-04T20:33:14.197Z,3.30
2018-05-04T20:35:42.352Z,3.30
2018-05-04T20:38:11.377Z,3.70
2018-05-04T20:40:51.104Z,4.05
2018-05-04T20:43:34.209Z,3.15
2018-05-04T20:46:03.574Z,4.37
2018-05-04T20:48:32.480Z,3.65
2018-05-04T20:51:00.734Z,3.62
2018-05-04T20:53:29.166Z,4.18
2018-05-04T20:55:57.325Z,3.00
2018-05-04T20:58:25.767Z,3.25
2018-05-04T21:00:54.014Z,3.83
2018-05-04T21:03:22.212Z,4.12
2018-05-04T21:05:50.614Z,4.30
2018-05-04T21:08:18.768Z,4.00
2018-05-04T21:10:47.716Z,4.20
2018-05-04T21:13:16.613Z,3.35
2018-05-04T21:15:46.192Z,4.32
2018-05-04T21:18:15.469Z,3.35
2018-05-04T21:20:44.512Z,3.60
2018-05-04T21:23:12.653Z,3.33
2018-05-04T21:25:40.799Z,2.83
2018-05-04T21:28:09.921Z,3.37
2018-05-04T21:30:38.396Z,3.55
2018-05-04T21:33:12.600Z,3.50
2018-05-04T21:35:40.774Z,3.50
2018-05-04T21:38:08.951Z,3.47
2018-05-04T21:40:38.419Z,3.40
2018-05-04T21:43:07.331Z,4.18
2018-05-04T21:45:58.179Z,3.40
2018-05-04T21:48:29.942Z,3.45
2018-05-04T21:51:25.232Z,3.62
2018-05-04T21:53:54.779Z,3.50
2018-05-04T21:56:23.701Z,2.95
2018-05-04T21:58:57.163Z,3.08
2018-05-04T22:01:30.753Z,3.30
2018-05-04T22:03:59.342Z,3.50
2018-05-04T22:06:37.142Z,3.28
2018-05-04T22:09:07.003Z,3.58
2018-05-04T22:11:35.173Z,3.80
2018-05-04T22:14:03.448Z,3.42
2018-05-04T22:16:51.115Z,3.22
2018-05-04T22:19:23.308Z,3.30
2018-05-04T22:21:52.292Z,3.28
2018-05-04T22:24:27.365Z,3.42
2018-05-04T22:26:55.604Z,4.00
2018-05-04T22:29:33.009Z,3.30
2018-05-04T22:32:14.443Z,2.97
2018-05-04T22:34:43.368Z,3.50
2018-05-04T22:37:11.531Z,3.22
2018-05-04T22:39:39.746Z,3.00
2018-05-04T22:42:07.913Z,3.08
2018-05-04T22:44:36.843Z,3.40
2018-05-04T22:47:05.652Z,3.70
2018-05-04T22:49:33.876Z,3.62
2018-05-04T22:52:02.034Z,3.92
2018-05-04T22:54:31.002Z,3.83
2018-05-04T22:56:59.964Z,5.28
2018-05-04T22:59:28.337Z,3.80
2018-05-04T23:01:57.413Z,3.45
2018-05-04T23:04:25.618Z,3.67
2018-05-04T23:06:53.763Z,4.20
2018-05-04T23:09:21.960Z,4.80
2018-05-04T23:11:50.111Z,3.25
2018-05-04T23:14:19.164Z,3.45
2018-05-04T23:16:48.101Z,3.65
2018-05-04T23:19:17.010Z,3.50
2018-05-04T23:21:46.679Z,3.95
2018-05-04T23:24:15.647Z,3.67
2018-05-04T23:26:43.799Z,3.75
2018-05-04T23:29:12.352Z,3.55
2018-05-04T23:31:41.850Z,3.55
2018-05-04T23:34:09.925Z,3.30
2018-05-04T23:36:38.230Z,3.92
2018-05-04T23:39:06.403Z,3.53
2018-05-04T23:41:34.708Z,3.65
2018-05-04T23:44:02.951Z,3.42
2018-05-04T23:46:31.113Z,5.00
2018-05-04T23:48:59.309Z,3.58
2018-05-04T23:51:27.469Z,3.75
2018-05-04T23:53:56.046Z,3.12
2018-05-04T23:56:24.263Z,3.42
2018-05-04T23:58:53.506Z,4.72
